createdAt,value
2018-12-15T00:01:38.535Z,0.58
2018-12-15T00:04:11.040Z,0.42
2018-12-15T00:06:59.404Z,0.60
2018-12-15T00:09:29.967Z,0.66
2018-12-15T00:12:00.478Z,0.63
2018-12-15T00:14:31.101Z,0.60
2018-12-15T00:17:05.673Z,0.62
2018-12-15T00:19:34.315Z,0.56
2018-12-15T00:22:04.853Z,0.40
2018-12-15T00:24:35.349Z,0.42
2018-12-15T00:27:07.018Z,0.51
2018-12-15T00:29:37.501Z,0.52
2018-12-15T00:32:07.994Z,0.57
2018-12-15T00:34:38.511Z,0.75
2018-12-15T00:37:08.997Z,0.84
2018-12-15T00:39:39.885Z,0.55
2018-12-15T00:42:10.429Z,0.65
2018-12-15T00:44:40.905Z,0.40
2018-12-15T00:47:13.868Z,0.43
2018-12-15T00:49:44.247Z,0.83
2018-12-15T00:52:15.842Z,0.48
2018-12-15T00:54:46.320Z,0.36
2018-12-15T00:57:16.860Z,0.57
2018-12-15T00:59:47.449Z,0.40
2018-12-15T01:02:18.538Z,0.48
2018-12-15T01:04:49.131Z,0.44
2018-12-15T01:07:19.672Z,0.41
2018-12-15T01:09:50.126Z,0.56
2018-12-15T01:12:20.727Z,0.48
2018-12-15T01:14:51.226Z,0.50
2018-12-15T01:17:21.693Z,0.55
2018-12-15T01:19:52.375Z,0.67
2018-12-15T01:22:22.885Z,0.79
2018-12-15T01:24:54.578Z,0.78
2018-12-15T01:27:25.203Z,0.60
2018-12-15T01:29:55.749Z,0.66
2018-12-15T01:32:26.404Z,0.68
2018-12-15T01:34:56.938Z,0.65
2018-12-15T01:37:27.449Z,0.76
2018-12-15T01:39:57.937Z,0.68
2018-12-15T01:42:28.453Z,0.60
2018-12-15T01:44:59.070Z,0.77
2018-12-15T01:47:29.657Z,0.78
2018-12-15T01:50:00.194Z,0.56
2018-12-15T01:52:30.899Z,0.58
2018-12-15T01:55:01.418Z,0.54
2018-12-15T01:57:32.049Z,0.45
2018-12-15T02:00:02.555Z,0.69
2018-12-15T02:02:35.449Z,0.64
2018-12-15T02:05:06.233Z,0.62
2018-12-15T02:07:36.705Z,0.57
2018-12-15T02:10:08.018Z,0.47
2018-12-15T02:12:38.956Z,0.59
2018-12-15T02:15:09.472Z,0.41
2018-12-15T02:17:39.969Z,0.47
2018-12-15T02:20:10.590Z,0.50
2018-12-15T02:22:41.205Z,0.38
2018-12-15T02:25:11.769Z,0.34
2018-12-15T02:27:42.255Z,0.41
2018-12-15T02:30:12.760Z,0.43
2018-12-15T02:32:43.410Z,0.54
2018-12-15T02:35:13.861Z,0.47
2018-12-15T02:37:44.353Z,0.58
2018-12-15T02:40:14.827Z,0.49
2018-12-15T02:42:45.326Z,0.55
2018-12-15T02:45:15.856Z,0.51
2018-12-15T02:47:46.297Z,0.47
2018-12-15T02:50:16.794Z,0.39
2018-12-15T02:52:47.268Z,0.44
2018-12-15T02:55:17.734Z,0.45
2018-12-15T02:57:48.227Z,0.58
2018-12-15T03:00:18.721Z,0.61
2018-12-15T03:02:49.222Z,0.43
2018-12-15T03:05:19.817Z,0.59
2018-12-15T03:07:50.290Z,0.62
2018-12-15T03:10:20.772Z,0.61
2018-12-15T03:12:51.268Z,0.78
2018-12-15T03:15:21.791Z,0.75
2018-12-15T03:17:52.264Z,0.88
2018-12-15T03:20:22.825Z,0.78
2018-12-15T03:22:53.289Z,0.76
2018-12-15T03:25:23.764Z,0.48
2018-12-15T03:27:54.210Z,0.75
2018-12-15T03:30:24.692Z,0.76
2018-12-15T03:32:55.278Z,0.71
2018-12-15T03:35:25.751Z,0.54
2018-12-15T03:37:56.241Z,0.64
2018-12-15T03:40:26.698Z,0.49
2018-12-15T03:42:57.192Z,0.67
2018-12-15T03:45:29.714Z,0.69
2018-12-15T03:48:00.252Z,0.70
2018-12-15T03:50:30.749Z,0.67
2018-12-15T03:53:01.194Z,0.68
2018-12-15T03:55:31.670Z,0.76
2018-12-15T03:58:02.206Z,0.79
2018-12-15T04:00:32.690Z,0.74
2018-12-15T04:03:03.318Z,0.62
2018-12-15T04:05:33.814Z,0.68
2018-12-15T04:08:04.424Z,0.66
2018-12-15T04:10:35.178Z,0.81
2018-12-15T04:13:05.680Z,0.63
2018-12-15T04:15:36.311Z,0.80
2018-12-15T04:18:06.843Z,0.76
2018-12-15T04:20:37.302Z,0.88
2018-12-15T04:23:07.867Z,0.79
2018-12-15T04:25:38.965Z,0.58
2018-12-15T04:28:09.486Z,0.67
2018-12-15T04:30:39.947Z,0.81
2018-12-15T04:33:10.444Z,0.65
2018-12-15T04:35:40.925Z,0.87
2018-12-15T04:38:11.477Z,0.70
2018-12-15T04:40:42.114Z,0.57
2018-12-15T04:43:12.559Z,0.71
2018-12-15T04:45:43.043Z,0.79
2018-12-15T04:48:13.537Z,0.59
2018-12-15T04:50:44.005Z,0.76
2018-12-15T04:53:14.471Z,0.70
2018-12-15T04:55:45.035Z,0.79
2018-12-15T04:58:15.537Z,0.79
2018-12-15T05:00:46.135Z,0.77
2018-12-15T05:03:16.586Z,0.73
2018-12-15T05:05:47.158Z,0.72
2018-12-15T05:08:17.710Z,0.89
2018-12-15T05:10:48.193Z,0.77
2018-12-15T05:13:18.697Z,0.81
2018-12-15T05:15:49.137Z,0.72
2018-12-15T05:18:19.657Z,0.89
2018-12-15T05:20:50.158Z,0.79
2018-12-15T05:23:20.610Z,0.84
2018-12-15T05:25:51.086Z,0.73
2018-12-15T05:28:21.674Z,0.65
2018-12-15T05:30:52.143Z,0.81
2018-12-15T05:33:22.635Z,0.95
2018-12-15T05:35:53.127Z,0.96
2018-12-15T05:38:23.735Z,0.99
2018-12-15T05:40:54.183Z,0.93
2018-12-15T05:43:24.646Z,0.73
2018-12-15T05:45:55.102Z,0.83
2018-12-15T05:48:25.620Z,0.54
2018-12-15T05:50:56.215Z,0.87
2018-12-15T05:53:26.750Z,0.91
2018-12-15T05:55:57.298Z,0.81
2018-12-15T05:58:27.834Z,0.96
2018-12-15T06:00:58.321Z,0.80
2018-12-15T06:03:28.812Z,0.69
2018-12-15T06:05:59.282Z,0.75
2018-12-15T06:08:29.809Z,0.86
2018-12-15T06:11:00.434Z,0.67
2018-12-15T06:13:30.996Z,0.65
2018-12-15T06:16:01.745Z,0.64
2018-12-15T06:18:32.328Z,0.68
2018-12-15T06:21:02.815Z,0.82
2018-12-15T06:23:33.457Z,0.78
2018-12-15T06:26:04.289Z,0.80
2018-12-15T06:28:34.990Z,0.70
2018-12-15T06:31:05.554Z,0.52
2018-12-15T06:33:36.213Z,0.81
2018-12-15T06:36:06.860Z,0.72
2018-12-15T06:38:37.575Z,0.80
2018-12-15T06:41:08.297Z,0.80
2018-12-15T06:43:39.209Z,0.89
2018-12-15T06:46:09.926Z,0.72
2018-12-15T06:48:40.451Z,0.75
2018-12-15T06:51:11.086Z,0.86
2018-12-15T06:53:41.584Z,0.81
2018-12-15T06:56:12.106Z,0.83
2018-12-15T06:58:42.739Z,0.89
2018-12-15T07:01:13.263Z,0.82
2018-12-15T07:03:43.763Z,0.89
2018-12-15T07:06:14.447Z,0.98
2018-12-15T07:08:44.978Z,0.85
2018-12-15T07:11:15.506Z,1.12
2018-12-15T07:13:45.999Z,0.99
2018-12-15T07:16:16.618Z,1.19
2018-12-15T07:18:47.105Z,1.11
2018-12-15T07:21:17.691Z,1.21
2018-12-15T07:23:48.198Z,1.17
2018-12-15T07:26:19.548Z,1.08
2018-12-15T07:28:50.051Z,1.14
2018-12-15T07:31:20.577Z,1.07
2018-12-15T07:33:51.038Z,1.16
2018-12-15T07:36:22.586Z,1.14
2018-12-15T07:38:53.111Z,1.10
2018-12-15T07:41:23.670Z,1.10
2018-12-15T07:43:54.351Z,1.10
2018-12-15T07:46:24.862Z,1.06
2018-12-15T07:48:55.496Z,1.12
2018-12-15T07:51:26.080Z,1.29
2018-12-15T07:53:56.629Z,1.23
2018-12-15T07:56:27.533Z,1.28
2018-12-15T07:58:58.090Z,1.20
2018-12-15T08:01:28.635Z,1.25
2018-12-15T08:03:59.186Z,1.22
2018-12-15T08:06:29.737Z,1.19
2018-12-15T08:09:01.074Z,1.28
2018-12-15T08:11:38.858Z,1.28
2018-12-15T08:16:54.278Z,1.45
2018-12-15T08:19:24.958Z,1.36
2018-12-15T08:21:55.675Z,1.25
2018-12-15T08:24:26.271Z,1.37
2018-12-15T08:26:56.987Z,1.26
2018-12-15T08:29:30.899Z,1.30
2018-12-15T08:32:01.514Z,1.34
2018-12-15T08:34:32.079Z,1.32
2018-12-15T08:37:02.723Z,1.50
2018-12-15T08:39:33.907Z,1.42
2018-12-15T08:42:04.840Z,1.39
2018-12-15T08:44:36.782Z,1.11
2018-12-15T08:47:07.561Z,1.35
2018-12-15T08:49:38.292Z,1.36
2018-12-15T08:52:10.211Z,1.46
2018-12-15T08:54:41.393Z,1.41
2018-12-15T09:00:19.497Z,1.26
2018-12-15T09:02:52.681Z,1.54
2018-12-15T09:05:25.176Z,1.24
2018-12-15T09:08:04.560Z,1.54
2018-12-15T09:10:36.274Z,1.44
2018-12-15T09:13:07.863Z,1.63
2018-12-15T09:15:40.295Z,1.42
2018-12-15T09:18:12.910Z,1.36
2018-12-15T09:20:58.762Z,1.46
2018-12-15T09:23:32.428Z,1.54
2018-12-15T09:26:06.998Z,1.60
2018-12-15T09:28:44.235Z,1.67
2018-12-15T09:31:23.207Z,1.56
2018-12-15T09:33:59.848Z,1.53
2018-12-15T09:36:43.693Z,1.70
2018-12-15T09:39:14.430Z,1.73
2018-12-15T09:41:46.404Z,1.60
2018-12-15T09:44:39.088Z,1.56
2018-12-15T09:47:38.603Z,1.64
2018-12-15T09:50:39.113Z,1.48
2018-12-15T09:53:14.627Z,1.33
2018-12-15T09:55:45.319Z,1.57
2018-12-15T09:58:19.113Z,1.68
2018-12-15T10:00:56.260Z,1.72
2018-12-15T10:03:27.191Z,1.53
2018-12-15T10:05:57.966Z,1.55
2018-12-15T10:08:28.739Z,1.62
2018-12-15T10:10:59.703Z,1.59
2018-12-15T10:13:31.526Z,1.91
2018-12-15T10:16:02.600Z,2.10
2018-12-15T10:18:34.251Z,1.82
2018-12-15T10:21:04.779Z,2.10
2018-12-15T10:23:35.287Z,1.76
2018-12-15T10:26:05.934Z,1.83
2018-12-15T10:28:36.693Z,1.61
2018-12-15T10:31:12.591Z,1.99
2018-12-15T10:33:43.394Z,1.86
2018-12-15T10:36:14.291Z,1.75
2018-12-15T10:38:44.935Z,1.89
2018-12-15T10:41:15.572Z,1.95
2018-12-15T10:43:46.440Z,2.32
2018-12-15T10:46:17.184Z,2.34
2018-12-15T10:48:49.758Z,2.30
2018-12-15T10:51:20.798Z,1.91
2018-12-15T10:53:51.660Z,2.15
2018-12-15T10:56:22.435Z,1.97
2018-12-15T10:58:53.769Z,1.73
2018-12-15T11:01:26.470Z,1.90
2018-12-15T11:04:00.788Z,1.78
2018-12-15T11:06:30.080Z,1.97
2018-12-15T11:09:00.770Z,1.83
2018-12-15T11:11:33.730Z,2.03
2018-12-15T11:14:04.738Z,1.82
2018-12-15T11:16:35.420Z,1.87
2018-12-15T11:19:06.319Z,1.90
2018-12-15T11:21:37.866Z,2.07
2018-12-15T11:24:08.611Z,2.03
2018-12-15T11:26:39.226Z,1.89
2018-12-15T11:29:09.722Z,1.98
2018-12-15T11:31:40.397Z,1.92
2018-12-15T11:34:11.209Z,2.03
2018-12-15T11:36:42.044Z,1.90
2018-12-15T11:39:12.684Z,2.06
2018-12-15T11:41:43.332Z,1.94
2018-12-15T11:44:13.949Z,2.09
2018-12-15T11:46:44.623Z,2.04
2018-12-15T11:49:16.493Z,2.07
2018-12-15T11:51:47.182Z,2.18
2018-12-15T11:54:17.922Z,2.25
2018-12-15T11:56:48.477Z,2.01
2018-12-15T11:59:19.165Z,2.04
2018-12-15T12:01:50.750Z,2.07
2018-12-15T12:04:21.386Z,1.95
2018-12-15T12:06:51.903Z,2.02
2018-12-15T12:09:22.431Z,1.99
2018-12-15T12:11:53.033Z,1.94
2018-12-15T12:14:23.620Z,2.04
2018-12-15T12:16:54.289Z,2.18
2018-12-15T12:19:25.175Z,1.98
2018-12-15T12:21:57.366Z,2.15
2018-12-15T12:24:28.085Z,2.27
2018-12-15T12:27:00.753Z,2.17
2018-12-15T12:29:31.389Z,2.22
2018-12-15T12:32:02.924Z,2.09
2018-12-15T12:34:33.680Z,2.16
2018-12-15T12:37:04.231Z,2.02
2018-12-15T12:39:35.093Z,2.21
2018-12-15T12:42:05.917Z,2.06
2018-12-15T12:44:36.787Z,2.04
2018-12-15T12:47:07.471Z,2.05
2018-12-15T12:49:38.231Z,1.94
2018-12-15T12:52:10.051Z,1.94
2018-12-15T12:54:40.647Z,2.09
2018-12-15T12:57:13.967Z,2.19
2018-12-15T12:59:44.845Z,2.31
2018-12-15T13:02:16.119Z,2.19
2018-12-15T13:04:47.505Z,2.14
2018-12-15T13:07:18.104Z,2.19
2018-12-15T13:09:48.633Z,2.37
2018-12-15T13:12:19.209Z,2.32
2018-12-15T13:14:49.790Z,2.24
2018-12-15T13:17:20.392Z,2.12
2018-12-15T13:19:50.951Z,2.55
2018-12-15T13:22:21.572Z,2.62
2018-12-15T13:24:52.288Z,2.46
2018-12-15T13:27:23.032Z,2.09
2018-12-15T13:29:53.684Z,2.12
2018-12-15T13:32:24.315Z,2.24
2018-12-15T13:34:55.042Z,2.29
2018-12-15T13:37:25.923Z,2.17
2018-12-15T13:39:56.672Z,2.18
2018-12-15T13:42:27.398Z,2.35
2018-12-15T13:44:58.222Z,2.29
2018-12-15T13:47:29.913Z,2.34
2018-12-15T13:50:00.926Z,2.28
2018-12-15T13:52:32.262Z,2.17
2018-12-15T13:55:02.889Z,2.14
2018-12-15T13:57:33.613Z,2.28
2018-12-15T14:00:04.305Z,2.24
2018-12-15T14:02:36.101Z,2.10
2018-12-15T14:05:06.814Z,2.11
2018-12-15T14:07:37.471Z,2.44
2018-12-15T14:10:08.264Z,2.38
2018-12-15T14:12:40.113Z,2.27
2018-12-15T14:15:10.986Z,2.42
2018-12-15T14:17:43.819Z,2.34
2018-12-15T14:20:16.975Z,2.35
2018-12-15T14:22:47.628Z,2.28
2018-12-15T14:25:23.741Z,2.23
2018-12-15T14:27:56.748Z,2.44
2018-12-15T14:30:30.036Z,2.10
2018-12-15T14:33:00.881Z,2.22
2018-12-15T14:35:31.951Z,2.24
2018-12-15T14:38:09.564Z,2.26
2018-12-15T14:40:40.473Z,2.26
2018-12-15T14:43:11.105Z,2.19
2018-12-15T14:45:57.493Z,2.27
2018-12-15T14:48:28.358Z,2.24
2018-12-15T14:50:58.964Z,2.10
2018-12-15T14:53:29.649Z,1.98
2018-12-15T14:56:00.231Z,1.94
2018-12-15T14:58:30.833Z,1.90
2018-12-15T15:01:01.495Z,1.87
2018-12-15T15:03:33.635Z,2.05
2018-12-15T15:06:04.411Z,1.96
2018-12-15T15:08:35.142Z,2.09
2018-12-15T15:11:05.692Z,1.99
2018-12-15T15:13:36.266Z,2.01
2018-12-15T15:16:06.839Z,1.96
2018-12-15T15:18:37.544Z,1.92
2018-12-15T15:21:08.106Z,1.84
2018-12-15T15:23:38.659Z,1.76
2018-12-15T15:26:09.177Z,1.57
2018-12-15T15:28:39.707Z,1.69
2018-12-15T15:31:10.284Z,1.84
2018-12-15T15:33:41.186Z,1.88
2018-12-15T15:36:11.944Z,1.71
2018-12-15T15:38:42.726Z,1.94
2018-12-15T15:41:13.332Z,1.87
2018-12-15T15:43:44.046Z,2.01
2018-12-15T15:46:14.733Z,1.86
2018-12-15T15:48:45.400Z,1.98
2018-12-15T15:51:16.029Z,1.76
2018-12-15T15:53:46.585Z,1.73
2018-12-15T15:56:17.261Z,1.68
2018-12-15T15:58:47.819Z,1.55
2018-12-15T16:01:18.515Z,1.66
2018-12-15T16:03:49.178Z,1.62
2018-12-15T16:06:20.242Z,1.73
2018-12-15T16:08:50.820Z,1.73
2018-12-15T16:11:21.454Z,1.62
2018-12-15T16:13:58.176Z,1.69
2018-12-15T16:16:34.831Z,1.69
2018-12-15T16:19:05.483Z,1.45
2018-12-15T16:21:36.201Z,1.68
2018-12-15T16:24:06.809Z,1.52
2018-12-15T16:26:45.209Z,1.68
2018-12-15T16:29:22.935Z,1.67
2018-12-15T16:31:53.520Z,1.37
2018-12-15T16:34:24.416Z,1.28
2018-12-15T16:36:55.332Z,1.33
2018-12-15T16:39:31.293Z,1.11
2018-12-15T16:42:02.490Z,1.06
2018-12-15T16:44:38.531Z,1.13
2018-12-15T16:47:13.319Z,0.96
2018-12-15T16:49:44.089Z,1.17
2018-12-15T16:52:18.076Z,0.92
2018-12-15T16:54:50.712Z,1.25
2018-12-15T16:57:24.566Z,1.35
2018-12-15T16:59:56.674Z,1.16
2018-12-15T17:02:27.305Z,1.04
2018-12-15T17:04:58.167Z,1.19
2018-12-15T17:07:28.962Z,1.47
2018-12-15T17:10:01.335Z,1.22
2018-12-15T17:12:32.959Z,1.29
2018-12-15T17:15:06.551Z,1.41
2018-12-15T17:17:37.473Z,1.17
2018-12-15T17:20:09.784Z,1.14
2018-12-15T17:22:41.995Z,1.04
2018-12-15T17:25:13.778Z,1.23
2018-12-15T17:27:46.153Z,1.07
2018-12-15T17:30:21.696Z,0.95
2018-12-15T17:32:54.275Z,0.92
2018-12-15T17:35:33.823Z,1.22
2018-12-15T17:38:05.909Z,1.05
2018-12-15T17:40:36.789Z,0.91
2018-12-15T17:43:07.492Z,0.91
2018-12-15T17:45:40.167Z,0.85
2018-12-15T17:48:11.940Z,0.93
2018-12-15T17:50:42.847Z,0.96
2018-12-15T17:53:13.683Z,0.83
2018-12-15T17:55:44.483Z,0.96
2018-12-15T17:58:15.262Z,1.06
2018-12-15T18:00:45.974Z,0.89
2018-12-15T18:03:16.629Z,1.07
2018-12-15T18:05:47.389Z,1.17
2018-12-15T18:08:18.058Z,1.12
2018-12-15T18:10:48.852Z,1.21
2018-12-15T18:13:19.472Z,1.32
2018-12-15T18:15:50.141Z,0.83
2018-12-15T18:18:21.235Z,0.99
2018-12-15T18:20:51.840Z,0.69
2018-12-15T18:23:23.630Z,0.67
2018-12-15T18:25:54.400Z,0.62
2018-12-15T18:28:25.239Z,0.78
2018-12-15T18:30:56.111Z,0.59
2018-12-15T18:33:27.202Z,0.76
2018-12-15T18:35:58.604Z,0.67
2018-12-15T18:38:30.466Z,0.76
2018-12-15T18:41:02.529Z,0.83
2018-12-15T18:43:33.183Z,0.87
2018-12-15T18:46:05.265Z,0.87
2018-12-15T18:48:38.049Z,0.70
2018-12-15T18:51:08.662Z,0.77
2018-12-15T18:53:40.207Z,0.81
2018-12-15T18:56:10.871Z,0.75
2018-12-15T18:58:44.527Z,0.72
2018-12-15T19:01:16.113Z,0.75
2018-12-15T19:03:46.880Z,0.80
2018-12-15T19:06:20.155Z,0.89
2018-12-15T19:08:54.054Z,0.82
2018-12-15T19:11:26.735Z,0.70
2018-12-15T19:13:57.275Z,0.75
2018-12-15T19:16:27.857Z,1.11
2018-12-15T19:18:58.832Z,0.81
2018-12-15T19:21:29.751Z,0.67
2018-12-15T19:24:01.134Z,0.81
2018-12-15T19:26:33.982Z,0.80
2018-12-15T19:29:05.443Z,1.01
2018-12-15T19:31:36.189Z,1.00
2018-12-15T19:34:06.922Z,1.09
2018-12-15T19:36:37.725Z,1.03
2018-12-15T19:39:14.802Z,0.97
2018-12-15T19:41:45.955Z,1.10
2018-12-15T19:44:18.461Z,0.94
2018-12-15T19:47:05.504Z,0.99
2018-12-15T19:49:45.352Z,0.91
2018-12-15T19:52:18.828Z,1.00
2018-12-15T19:54:51.367Z,0.83
2018-12-15T19:57:22.322Z,0.84
2018-12-15T19:59:53.164Z,0.89
2018-12-15T20:02:24.335Z,1.00
2018-12-15T20:04:55.097Z,0.84
2018-12-15T20:07:26.041Z,0.77
2018-12-15T20:26:31.106Z,1.05
2018-12-15T20:29:05.262Z,1.17
2018-12-15T20:31:36.529Z,1.06
2018-12-15T20:34:07.038Z,1.16
2018-12-15T20:36:47.503Z,1.26
2018-12-15T20:39:23.477Z,1.08
2018-12-15T20:42:00.850Z,1.19
2018-12-15T20:44:31.698Z,1.05
2018-12-15T20:47:05.247Z,0.86
2018-12-15T20:49:43.902Z,0.97
2018-12-15T20:52:14.547Z,0.69
2018-12-15T20:54:45.159Z,0.66
2018-12-15T20:57:18.559Z,0.50
2018-12-15T20:59:51.007Z,0.65
2018-12-15T21:02:27.397Z,0.61
2018-12-15T21:05:06.628Z,0.53
2018-12-15T21:07:37.869Z,0.33
2018-12-15T21:10:08.891Z,0.44
2018-12-15T21:12:39.945Z,0.37
2018-12-15T21:15:19.754Z,0.20
2018-12-15T21:18:16.148Z,0.29
2018-12-15T21:20:54.926Z,0.26
2018-12-15T21:23:28.397Z,0.27
2018-12-15T21:25:59.872Z,0.09
2018-12-15T21:28:31.532Z,0.12
2018-12-15T21:31:02.106Z,0.22
2018-12-15T21:33:33.920Z,0.01
2018-12-15T21:36:04.600Z,0.24
2018-12-15T21:38:35.297Z,0.06
2018-12-15T21:41:05.890Z,0.09
2018-12-15T21:43:36.586Z,0.09
2018-12-15T21:46:07.214Z,-0.05
2018-12-15T21:48:37.807Z,0.00
2018-12-15T21:51:08.553Z,-0.12
2018-12-15T21:53:39.110Z,-0.13
2018-12-15T21:56:10.571Z,-0.12
2018-12-15T21:58:41.249Z,-0.16
2018-12-15T22:01:11.850Z,-0.02
2018-12-15T22:03:42.550Z,-0.17
2018-12-15T22:06:13.307Z,-0.15
2018-12-15T22:08:45.444Z,-0.20
2018-12-15T22:11:16.110Z,-0.15
2018-12-15T22:13:46.796Z,-0.24
2018-12-15T22:16:17.403Z,-0.23
2018-12-15T22:18:47.972Z,-0.27
2018-12-15T22:21:19.012Z,-0.28
2018-12-15T22:23:49.612Z,-0.29
2018-12-15T22:26:20.216Z,-0.25
2018-12-15T22:28:50.796Z,-0.12
2018-12-15T22:31:21.392Z,0.04
2018-12-15T22:33:52.019Z,-0.05
2018-12-15T22:36:22.759Z,-0.04
2018-12-15T22:38:53.448Z,-0.08
2018-12-15T22:41:24.104Z,-0.18
2018-12-15T22:43:54.813Z,-0.28
2018-12-15T22:46:25.577Z,-0.34
2018-12-15T22:48:56.177Z,-0.36
2018-12-15T22:51:26.866Z,-0.33
2018-12-15T22:53:57.538Z,-0.35
2018-12-15T22:56:28.084Z,-0.29
2018-12-15T22:58:58.751Z,-0.54
2018-12-15T23:01:31.588Z,-0.39
2018-12-15T23:04:04.709Z,-0.50
2018-12-15T23:06:35.337Z,-0.26
2018-12-15T23:09:08.195Z,-0.16
2018-12-15T23:11:40.926Z,-0.37
2018-12-15T23:14:11.510Z,-0.19
2018-12-15T23:20:46.883Z,-0.26
2018-12-15T23:23:17.449Z,-0.29
2018-12-15T23:25:48.048Z,-0.51
2018-12-15T23:28:18.635Z,-0.46
2018-12-15T23:30:49.242Z,-0.46
2018-12-15T23:33:19.803Z,-0.43
2018-12-15T23:35:50.352Z,-0.47
2018-12-15T23:38:20.929Z,-0.56
2018-12-15T23:40:51.491Z,-0.55
2018-12-15T23:43:22.865Z,-0.64
2018-12-15T23:45:54.459Z,-0.46
2018-12-15T23:48:25.073Z,-0.58
2018-12-15T23:50:55.687Z,-0.53
2018-12-15T23:53:26.290Z,-0.52
2018-12-15T23:55:56.906Z,-0.62
2018-12-15T23:58:27.474Z,-0.66
